Time;durP1;ratioP1;P1;durP2;ratioP2;P2;SDS_P1;SDS_P2;PMS_P1;PMS_P2;Temp;Humidity;BMP_temperature;BMP_pressure;BME280_temperature;BME280_humidity;BME280_pressure;Samples;Min_cycle;Max_cycle;Signal;HPM_P1;HPM_P2
2024/02/19 00:00:36;;;;;;;;;0.00;0.00;;;;;14.95;100.00;102865.84;5077762;27;69408;-82
2024/02/19 00:03:05;;;;;;;;;0.00;0.00;;;;;14.92;100.00;102863.28;5077474;28;68678;-82
2024/02/19 00:05:30;;;;;;;;;0.00;0.00;;;;;14.83;100.00;102866.88;5078574;27;45501;-82
2024/02/19 00:07:57;;;;;;;;;0.00;0.00;;;;;14.75;100.00;102869.59;5078764;28;45454;-82
2024/02/19 00:10:22;;;;;;;;;0.00;0.00;;;;;14.74;100.00;102867.84;5078705;28;45296;-82
2024/02/19 00:12:48;;;;;;;;;0.00;0.00;;;;;14.75;100.00;102860.88;5078468;28;45325;-82
2024/02/19 00:15:13;;;;;;;;;0.00;0.00;;;;;14.72;100.00;102859.16;5078305;28;45302;-81
2024/02/19 00:17:39;;;;;;;;;0.00;0.00;;;;;14.70;100.00;102863.53;5076992;28;45382;-81
2024/02/19 00:20:05;;;;;;;;;0.00;0.00;;;;;14.70;100.00;102858.31;5077520;28;63940;-82
2024/02/19 00:22:31;;;;;;;;;0.00;0.00;;;;;14.66;100.00;102859.22;5076818;28;45588;-82
2024/02/19 00:24:56;;;;;;;;;0.00;0.00;;;;;14.65;100.00;102855.75;5076414;27;72576;-82
2024/02/19 00:27:21;;;;;;;;;0.00;0.00;;;;;14.64;100.00;102866.25;5077488;28;68444;-81
2024/02/19 00:29:46;;;;;;;;;0.00;0.00;;;;;14.67;100.00;102867.09;5077240;28;70385;-82
2024/02/19 00:32:12;;;;;;;;;0.00;0.00;;;;;14.69;100.00;102867.03;5077010;28;67405;-82
2024/02/19 00:34:44;;;;;;;;;0.00;0.00;;;;;14.71;100.00;102867.91;5078002;27;45351;-81
2024/02/19 00:37:10;;;;;;;;;0.00;0.00;;;;;14.73;100.00;102870.50;5077049;28;45473;-82
2024/02/19 00:39:36;;;;;;;;;0.00;0.00;;;;;14.70;100.00;102868.78;5078175;27;45305;-81
2024/02/19 00:42:02;;;;;;;;;0.00;0.00;;;;;14.74;100.00;102870.47;5077997;28;47308;-81
2024/02/19 00:44:27;;;;;;;;;0.00;0.00;;;;;14.75;100.00;102874.84;5076576;28;45457;-80
2024/02/19 00:46:53;;;;;;;;;0.00;0.00;;;;;14.78;100.00;102872.16;5075765;28;69164;-82
2024/02/19 00:49:18;;;;;;;;;0.00;0.00;;;;;14.79;100.00;102873.06;5076801;28;70227;-81
2024/02/19 00:51:43;;;;;;;;;0.00;0.00;;;;;14.79;100.00;102866.06;5076616;28;71513;-81
2024/02/19 00:54:09;;;;;;;;;0.00;0.00;;;;;14.82;100.00;102875.63;5076810;27;70489;-82
2024/02/19 00:56:34;;;;;;;;;0.00;0.00;;;;;14.83;100.00;102864.25;5076403;28;45797;-82
2024/02/19 00:58:59;;;;;;;;;0.00;0.00;;;;;14.80;100.00;102867.81;5076484;28;70769;-81
2024/02/19 01:01:25;;;;;;;;;0.00;0.00;;;;;14.81;100.00;102856.41;5077587;28;45458;-82
2024/02/19 01:03:50;;;;;;;;;0.00;0.00;;;;;14.83;100.00;102866.88;5076544;28;45454;-81
2024/02/19 01:06:15;;;;;;;;;0.00;0.00;;;;;14.79;100.00;102862.56;5077050;27;62304;-82
2024/02/19 01:08:41;;;;;;;;;0.00;0.00;;;;;14.79;100.00;102857.31;5075684;28;68483;-82
2024/02/19 01:11:06;;;;;;;;;0.00;0.00;;;;;14.75;100.00;102866.97;5076986;28;75538;-82
2024/02/19 01:13:32;;;;;;;;;0.00;0.00;;;;;14.80;100.00;102859.03;5075191;28;62569;-82
2024/02/19 01:15:57;;;;;;;;;0.00;0.00;;;;;14.80;100.00;102867.81;5077828;27;45436;-84
2024/02/19 01:18:22;;;;;;;;;0.00;0.00;;;;;14.78;100.00;102866.91;5077659;27;45402;-81
2024/02/19 01:20:48;;;;;;;;;0.00;0.00;;;;;14.90;100.00;102861.53;5076249;27;75433;-81
2024/02/19 01:23:13;;;;;;;;;0.00;0.00;;;;;14.90;100.00;102872.03;5076388;27;71006;-81
2024/02/19 01:25:40;;;;;;;;;0.00;0.00;;;;;14.90;100.00;102864.16;5091148;27;61139;-81
2024/02/19 01:28:06;;;;;;;;;0.00;0.00;;;;;14.90;100.00;102861.53;5097662;27;45542;-81
2024/02/19 01:30:31;;;;;;;;;1.00;1.00;;;;;14.90;100.00;102860.66;5079435;27;47027;-81
2024/02/19 01:33:01;;;;;;;;;0.00;0.00;;;;;14.89;100.00;102869.41;5097871;27;45431;-81
2024/02/19 01:35:26;;;;;;;;;0.00;0.00;;;;;14.87;100.00;102872.06;5097731;27;45374;-81
2024/02/19 01:37:52;;;;;;;;;0.00;0.00;;;;;14.84;100.00;102872.09;5096742;27;45252;-81
2024/02/19 01:40:18;;;;;;;;;0.00;0.00;;;;;14.82;100.00;102871.25;5097720;27;46228;-81
2024/02/19 01:42:43;;;;;;;;;0.00;0.00;;;;;14.80;100.00;102870.41;5096151;27;45320;-81
2024/02/19 01:45:28;;;;;;;;;0.00;0.00;;;;;14.83;100.00;102869.50;5096696;27;45330;-82
2024/02/19 01:47:55;;;;;;;;;0.00;0.00;;;;;14.82;100.00;102863.41;5097720;27;45248;-81
2024/02/19 01:50:20;;;;;;;;;0.00;0.00;;;;;14.81;100.00;102861.66;5084819;27;46593;-81
2024/02/19 01:52:46;;;;;;;;;0.00;0.00;;;;;14.81;100.00;102866.03;5076918;28;45384;-81
2024/02/19 01:55:12;;;;;;;;;0.00;0.00;;;;;14.83;100.00;102867.75;5075815;28;45434;-81
2024/02/19 01:57:37;;;;;;;;;0.00;0.00;;;;;14.82;100.00;102867.75;5075275;28;45359;-81
2024/02/19 02:00:05;;;;;;;;;0.00;0.00;;;;;14.81;100.00;102858.16;5074515;28;69553;-81
2024/02/19 02:02:31;;;;;;;;;0.00;0.00;;;;;14.80;100.00;102859.94;5075605;28;45414;-82
2024/02/19 02:04:56;;;;;;;;;0.00;0.00;;;;;14.81;100.00;102852.94;5075441;28;45420;-81
2024/02/19 02:07:22;;;;;;;;;0.00;0.00;;;;;14.79;100.00;102844.22;5075744;27;69648;-82
2024/02/19 02:09:47;;;;;;;;;0.00;0.00;;;;;14.79;100.00;102857.31;5074344;27;74199;-82
2024/02/19 02:12:12;;;;;;;;;0.00;0.00;;;;;14.78;100.00;102850.34;5074156;28;69463;-82
2024/02/19 02:14:40;;;;;;;;;0.00;0.00;;;;;14.75;100.00;102856.50;5076109;28;55927;-82
2024/02/19 02:17:07;;;;;;;;;0.00;0.00;;;;;14.67;100.00;102861.84;5092376;27;45303;-83
2024/02/19 02:19:32;;;;;;;;;0.00;0.00;;;;;14.57;100.00;102851.44;5075118;28;45391;-81
2024/02/19 02:21:58;;;;;;;;;0.00;0.00;;;;;14.53;100.00;102855.84;5074461;28;65580;-81
2024/02/19 02:24:23;;;;;;;;;0.00;0.00;;;;;14.49;100.00;102857.63;5076083;27;45331;-82
2024/02/19 02:26:49;;;;;;;;;0.00;0.00;;;;;14.41;100.00;102853.38;5075270;28;70944;-81
2024/02/19 02:29:14;;;;;;;;;0.00;0.00;;;;;14.56;100.00;102861.06;5074995;28;46060;-82
2024/02/19 02:31:39;;;;;;;;;0.00;0.00;;;;;14.51;100.00;102855.00;5076264;27;45444;-82
2024/02/19 02:34:05;;;;;;;;;0.00;0.00;;;;;14.50;100.00;102856.78;5075590;27;59260;-82
2024/02/19 02:36:30;;;;;;;;;0.00;0.00;;;;;14.40;100.00;102854.25;5074070;28;70419;-82
2024/02/19 02:38:55;;;;;;;;;0.00;0.00;;;;;14.42;100.00;102850.72;5073714;28;68107;-81
2024/02/19 02:41:21;;;;;;;;;0.00;0.00;;;;;14.61;100.00;102850.56;5074338;28;45306;-82
2024/02/19 02:43:46;;;;;;;;;0.00;0.00;;;;;14.59;100.00;102857.56;5074172;28;64612;-81
2024/02/19 02:46:11;;;;;;;;;0.00;0.00;;;;;14.55;100.00;102854.06;5075012;28;45364;-82
2024/02/19 02:48:37;;;;;;;;;0.00;0.00;;;;;14.55;100.00;102850.59;5078428;28;75136;-82
2024/02/19 02:51:02;;;;;;;;;0.00;0.00;;;;;14.54;100.00;102854.94;5080107;27;63919;-81
2024/02/19 02:53:27;;;;;;;;;0.00;0.00;;;;;14.54;100.00;102849.72;5079748;28;49292;-82
2024/02/19 02:55:53;;;;;;;;;0.00;0.00;;;;;14.56;100.00;102849.69;5077432;28;71886;-81
2024/02/19 02:58:18;;;;;;;;;0.00;0.00;;;;;14.49;100.00;102852.41;5078270;28;47049;-81
2024/02/19 03:00:43;;;;;;;;;0.00;0.00;;;;;14.49;100.00;102849.78;5079528;27;52997;-82
2024/02/19 03:03:09;;;;;;;;;0.00;0.00;;;;;14.51;100.00;102844.53;5078718;28;45317;-81
2024/02/19 03:05:35;;;;;;;;;0.00;0.00;;;;;14.49;100.00;102847.16;5079821;28;45379;-82
2024/02/19 03:08:00;;;;;;;;;1.00;1.00;;;;;14.51;100.00;102845.38;5079729;28;45366;-81
2024/02/19 03:10:26;;;;;;;;;50.00;47.33;;;;;14.47;100.00;102854.16;5079033;28;45327;-80
2024/02/19 03:12:51;;;;;;;;;0.00;0.00;;;;;14.49;100.00;102851.53;5079199;28;58362;-81
2024/02/19 03:15:16;;;;;;;;;0.00;0.00;;;;;14.55;100.00;102858.47;5077567;28;64299;-81
2024/02/19 03:17:42;;;;;;;;;0.00;0.00;;;;;14.55;100.00;102861.09;5078585;28;65299;-82
2024/02/19 03:20:13;;;;;;;;;0.00;0.00;;;;;14.56;100.00;102860.19;5078237;28;45501;-82
2024/02/19 03:22:41;;;;;;;;;0.00;0.00;;;;;14.58;100.00;102858.44;5078335;28;45482;-81
2024/02/19 03:25:06;;;;;;;;;0.00;0.00;;;;;14.54;100.00;102860.19;5078968;27;45539;-82
2024/02/19 03:27:32;;;;;;;;;0.00;0.00;;;;;14.58;100.00;102855.81;5079276;28;45401;-81
2024/02/19 03:29:57;;;;;;;;;0.00;0.00;;;;;14.59;100.00;102862.81;5077861;28;45340;-82
2024/02/19 03:32:22;;;;;;;;;0.00;0.00;;;;;14.61;100.00;102851.41;5078634;27;64089;-82
2024/02/19 03:34:48;;;;;;;;;0.00;0.00;;;;;14.62;100.00;102847.06;5078445;27;58391;-81
2024/02/19 03:37:15;;;;;;;;;0.00;0.00;;;;;14.64;100.00;102850.53;5078083;28;70274;-81
2024/02/19 03:39:41;;;;;;;;;0.00;0.00;;;;;14.65;100.00;102847.88;5077385;28;45337;-82
2024/02/19 03:42:06;;;;;;;;;0.00;0.00;;;;;14.66;100.00;102856.59;5079204;28;45536;-81
2024/02/19 03:44:32;;;;;;;;;0.00;0.00;;;;;14.67;100.00;102855.72;5078012;28;45357;-82
2024/02/19 03:46:57;;;;;;;;;0.00;0.00;;;;;14.69;100.00;102860.06;5078750;27;45530;-83
2024/02/19 03:49:23;;;;;;;;;0.00;0.00;;;;;14.68;100.00;102860.06;5078790;28;45353;-82
2024/02/19 03:51:48;;;;;;;;;0.00;0.00;;;;;14.70;100.00;102856.53;5077789;27;45384;-81
2024/02/19 03:54:13;;;;;;;;;0.00;0.00;;;;;14.73;100.00;102849.50;5077710;27;68358;-82
2024/02/19 03:56:39;;;;;;;;;0.00;0.00;;;;;14.71;100.00;102846.94;5078781;28;46477;-81
2024/02/19 03:59:05;;;;;;;;;0.00;0.00;;;;;14.74;100.00;102852.13;5076676;28;61375;-81
2024/02/19 04:01:30;;;;;;;;;0.00;0.00;;;;;14.78;100.00;102855.56;5078106;27;45294;-82
2024/02/19 04:03:55;;;;;;;;;0.00;0.00;;;;;14.74;100.00;102846.88;5078916;27;45427;-81
2024/02/19 04:06:21;;;;;;;;;0.00;0.00;;;;;14.73;100.00;102853.03;5078571;27;46450;-82
2024/02/19 04:08:46;;;;;;;;;0.00;0.00;;;;;14.72;100.00;102851.28;5076002;28;70970;-81
2024/02/19 04:11:15;;;;;;;;;0.00;0.00;;;;;14.66;100.00;102860.09;5077763;27;69162;-81
2024/02/19 04:13:40;;;;;;;;;0.00;0.00;;;;;14.61;100.00;102854.03;5077302;28;45413;-81
2024/02/19 04:16:09;;;;;;;;;0.00;0.00;;;;;14.63;100.00;102859.25;5076285;28;69118;-82
2024/02/19 04:18:34;;;;;;;;;0.00;0.00;;;;;14.60;100.00;102857.56;5077123;28;45356;-81
2024/02/19 04:21:00;;;;;;;;;0.00;0.00;;;;;14.58;100.00;102861.06;5077465;27;67694;-82
2024/02/19 04:23:25;;;;;;;;;0.00;0.00;;;;;14.59;100.00;102862.81;5077885;27;45343;-81
2024/02/19 04:25:50;;;;;;;;;0.00;0.00;;;;;14.57;100.00;102867.16;5075742;28;73481;-81
2024/02/19 04:28:16;;;;;;;;;0.00;0.00;;;;;14.57;100.00;102875.03;5078840;28;73480;-81
2024/02/19 04:30:41;;;;;;;;;0.00;0.00;;;;;14.59;100.00;102874.16;5077208;28;45334;-81
2024/02/19 04:33:06;;;;;;;;;0.00;0.00;;;;;14.60;100.00;102880.25;5076350;28;69451;-81
2024/02/19 04:35:32;;;;;;;;;4.00;4.00;;;;;14.60;100.00;102883.75;5075959;28;64971;-81
2024/02/19 04:37:57;;;;;;;;;0.00;0.00;;;;;14.64;100.00;102890.69;5076378;28;51289;-81
2024/02/19 04:40:22;;;;;;;;;0.00;0.00;;;;;14.63;100.00;102891.56;5075968;28;69269;-82
2024/02/19 04:42:47;;;;;;;;;0.00;0.00;;;;;14.52;100.00;102886.44;5076142;28;64827;-82
2024/02/19 04:45:13;;;;;;;;;0.00;0.00;;;;;14.51;100.00;102887.31;5076275;28;61032;-82
2024/02/19 04:47:38;;;;;;;;;0.00;0.00;;;;;14.51;100.00;102882.06;5076920;27;71269;-81
2024/02/19 04:50:04;;;;;;;;;0.00;0.00;;;;;14.55;100.00;102890.75;5077941;27;45272;-82
2024/02/19 04:52:29;;;;;;;;;0.00;0.00;;;;;14.55;100.00;102884.66;5077526;28;45512;-81
2024/02/19 04:54:55;;;;;;;;;0.00;0.00;;;;;14.56;100.00;102871.56;5077727;28;45377;-82
2024/02/19 04:57:20;;;;;;;;;0.00;0.00;;;;;14.57;100.00;102859.31;5076632;28;45390;-82
2024/02/19 04:59:46;;;;;;;;;0.00;0.00;;;;;14.60;100.00;102859.28;5076921;27;66844;-82
2024/02/19 05:02:11;;;;;;;;;0.00;0.00;;;;;14.58;100.00;102875.06;5075501;28;70910;-82
2024/02/19 05:04:37;;;;;;;;;0.00;0.00;;;;;14.56;100.00;102878.53;5077556;28;46488;-82
2024/02/19 05:07:02;;;;;;;;;0.00;0.00;;;;;14.61;100.00;102885.47;5076348;28;45402;-82
2024/02/19 05:09:28;;;;;;;;;0.00;0.00;;;;;14.69;100.00;102881.03;5076299;28;45431;-82
2024/02/19 05:11:53;;;;;;;;;0.00;0.00;;;;;14.74;100.00;102880.09;5075800;28;55027;-81
2024/02/19 05:14:18;;;;;;;;;0.00;0.00;;;;;14.74;100.00;102880.09;5075319;28;70666;-82
2024/02/19 05:16:45;;;;;;;;;0.00;0.00;;;;;14.74;100.00;102870.47;5077497;27;45336;-84
2024/02/19 05:19:11;;;;;;;;;0.00;0.00;;;;;14.73;100.00;102866.13;5077712;27;45291;-82
2024/02/19 05:21:43;;;;;;;;;0.00;0.00;;;;;14.73;100.00;102878.34;5092970;27;45553;-81
2024/02/19 05:24:09;;;;;;;;;0.00;0.00;;;;;14.71;100.00;102889.75;5075971;28;46288;-81
2024/02/19 05:26:35;;;;;;;;;0.00;0.00;;;;;14.70;100.00;102888.00;5077710;27;45445;-81
2024/02/19 05:29:00;;;;;;;;;0.00;0.00;;;;;14.67;100.00;102885.44;5093653;27;45411;-82
2024/02/19 05:31:34;;;;;;;;;0.00;0.00;;;;;14.62;100.00;102895.09;5076689;27;70049;-82
2024/02/19 05:34:01;;;;;;;;;0.00;0.00;;;;;14.62;100.00;102892.47;5075979;28;48013;-81
2024/02/19 05:36:26;;;;;;;;;0.00;0.00;;;;;14.62;100.00;102894.22;5076854;28;45462;-81
2024/02/19 05:38:52;;;;;;;;;0.00;0.00;;;;;14.61;100.00;102897.72;5077388;27;45359;-81
2024/02/19 05:41:17;;;;;;;;;0.00;0.00;;;;;14.57;100.00;102904.75;5075695;28;55863;-82
2024/02/19 05:43:43;;;;;;;;;0.00;0.00;;;;;14.55;100.00;102906.50;5076207;27;72114;-81
2024/02/19 05:46:08;;;;;;;;;0.00;0.00;;;;;14.56;100.00;102902.13;5076923;28;45442;-82
2024/02/19 05:48:34;;;;;;;;;0.00;0.00;;;;;14.55;100.00;102914.34;5075956;28;45304;-82
2024/02/19 05:51:03;;;;;;;;;0.00;0.00;;;;;14.55;100.00;102921.34;5088586;27;45294;-82
2024/02/19 05:53:32;;;;;;;;;0.00;0.00;;;;;14.54;100.00;102930.94;5075470;28;45516;-82
2024/02/19 05:55:57;;;;;;;;;0.00;0.00;;;;;14.52;100.00;102935.34;5075749;28;45424;-82
2024/02/19 05:58:23;;;;;;;;;0.00;0.00;;;;;14.52;100.00;102925.75;5077217;28;45307;-82
2024/02/19 06:00:48;;;;;;;;;0.00;0.00;;;;;14.47;100.00;102924.94;5076355;28;56932;-82
2024/02/19 06:03:13;;;;;;;;;0.00;0.00;;;;;14.44;100.00;102931.94;5074697;28;70666;-82
2024/02/19 06:05:40;;;;;;;;;0.00;0.00;;;;;14.44;100.00;102934.56;5075829;28;71609;-82
2024/02/19 06:08:05;;;;;;;;;0.00;0.00;;;;;14.42;100.00;102929.34;5075931;28;45367;-81
2024/02/19 06:10:31;;;;;;;;;0.00;0.00;;;;;14.41;100.00;102919.75;5076049;28;45294;-82
2024/02/19 06:12:56;;;;;;;;;0.00;0.00;;;;;14.44;100.00;102924.09;5075617;28;46210;-82
2024/02/19 06:15:23;;;;;;;;;0.00;0.00;;;;;14.42;100.00;102918.00;5074784;28;73108;-81
2024/02/19 06:17:49;;;;;;;;;0.00;0.00;;;;;14.39;100.00;102916.25;5075718;28;45337;-82
2024/02/19 06:20:15;;;;;;;;;0.00;0.00;;;;;14.31;100.00;102913.72;5075897;28;66074;-84
2024/02/19 06:22:41;;;;;;;;;0.00;0.00;;;;;14.41;100.00;102917.13;5076286;28;46128;-84
2024/02/19 06:25:06;;;;;;;;;0.00;0.00;;;;;14.38;100.00;102917.16;5076619;28;45237;-83
2024/02/19 06:27:32;;;;;;;;;0.00;0.00;;;;;14.39;100.00;102911.00;5075676;28;45288;-82
2024/02/19 06:29:57;;;;;;;;;0.00;0.00;;;;;14.39;100.00;102915.41;5075514;28;45279;-84
2024/02/19 06:32:23;;;;;;;;;0.00;0.00;;;;;14.38;100.00;102914.53;5074240;28;72756;-82
2024/02/19 06:34:48;;;;;;;;;0.00;0.00;;;;;14.42;100.00;102915.38;5074949;28;45431;-83
2024/02/19 06:37:13;;;;;;;;;0.00;0.00;;;;;14.43;100.00;102910.13;5076624;27;45609;-82
2024/02/19 06:39:40;;;;;;;;;0.00;0.00;;;;;14.46;100.00;102914.44;5075457;27;70299;-82
2024/02/19 06:42:06;;;;;;;;;0.00;0.00;;;;;14.47;100.00;102911.81;5076291;27;46118;-82
2024/02/19 06:44:32;;;;;;;;;0.00;0.00;;;;;14.48;100.00;102910.06;5075166;28;45511;-82
2024/02/19 06:46:57;;;;;;;;;0.00;0.00;;;;;14.46;100.00;102904.81;5076353;27;45820;-83
2024/02/19 06:49:22;;;;;;;;;0.00;0.00;;;;;14.42;100.00;102903.13;5076019;27;45457;-82
2024/02/19 06:51:48;;;;;;;;;6.00;6.00;;;;;14.36;100.00;102897.06;5074778;28;47835;-82
2024/02/19 06:54:13;;;;;;;;;0.00;0.00;;;;;14.34;100.00;102894.50;5075969;27;45429;-82
2024/02/19 06:56:39;;;;;;;;;1.00;1.00;;;;;14.25;100.00;102889.34;5073516;28;69518;-83
2024/02/19 06:59:04;;;;;;;;;0.00;0.00;;;;;14.18;100.00;102891.16;5072946;28;45484;-83
2024/02/19 07:01:29;;;;;;;;;0.00;0.00;;;;;14.08;100.00;102886.91;5073759;28;45604;-82
2024/02/19 07:03:55;;;;;;;;;0.00;0.00;;;;;14.04;100.00;102872.97;5090361;27;73587;-81
2024/02/19 07:06:21;;;;;;;;;0.00;0.00;;;;;14.04;100.00;102870.34;5074565;28;45505;-79
2024/02/19 07:08:47;;;;;;;;;0.00;0.00;;;;;14.01;100.00;102886.06;5075163;27;61883;-81
2024/02/19 07:11:12;;;;;;;;;0.00;0.00;;;;;13.98;100.00;102896.56;5075622;27;46370;-81
2024/02/19 07:13:38;;;;;;;;;0.00;0.00;;;;;13.97;100.00;102896.56;5075785;27;45441;-80
2024/02/19 07:16:03;;;;;;;;;0.00;0.00;;;;;14.01;100.00;102890.44;5073831;28;66295;-80
2024/02/19 07:18:29;;;;;;;;;0.00;0.00;;;;;14.02;100.00;102895.69;5075804;27;45336;-80
2024/02/19 07:20:54;;;;;;;;;0.00;0.00;;;;;14.06;100.00;102899.09;5075846;27;45373;-79
2024/02/19 07:23:19;;;;;;;;;0.00;0.00;;;;;14.10;100.00;102906.94;5075662;27;45336;-80
2024/02/19 07:25:45;;;;;;;;;0.00;0.00;;;;;14.16;100.00;102915.63;5108672;27;45859;-81
2024/02/19 07:28:10;;;;;;;;;0.00;0.00;;;;;14.19;100.00;102915.59;5075859;27;45370;-85
2024/02/19 07:30:37;;;;;;;;;0.00;0.00;;;;;14.20;100.00;102917.34;5074405;27;70697;-83
2024/02/19 07:33:02;;;;;;;;;0.00;0.00;;;;;14.26;100.00;102930.38;5075367;27;45366;-84
2024/02/19 07:35:28;;;;;;;;;0.00;0.00;;;;;14.32;100.00;102944.28;5074483;27;45601;-83
2024/02/19 07:37:53;;;;;;;;;0.00;0.00;;;;;14.35;100.00;102942.50;5076846;27;69350;-84
2024/02/19 07:40:20;;;;;;;;;0.00;0.00;;;;;14.35;100.00;102945.13;5075774;28;76396;-83
2024/02/19 07:42:47;;;;;;;;;0.00;0.00;;;;;14.37;100.00;102941.59;5073719;27;45520;-85
2024/02/19 07:45:13;;;;;;;;;0.00;0.00;;;;;14.42;100.00;102947.69;5091887;27;45745;-87
2024/02/19 07:47:38;;;;;;;;;0.00;0.00;;;;;14.43;100.00;102957.28;5103953;27;45502;-84
2024/02/19 07:50:04;;;;;;;;;0.00;0.00;;;;;14.47;100.00;102964.22;5094223;27;46091;-84
2024/02/19 07:52:29;;;;;;;;;0.00;0.00;;;;;14.43;100.00;102959.91;5080656;28;45368;-85
2024/02/19 07:54:55;;;;;;;;;0.00;0.00;;;;;14.35;100.00;102973.97;5079006;27;50218;-82
2024/02/19 07:57:20;;;;;;;;;0.00;0.00;;;;;14.41;100.00;102969.53;5078757;27;45322;-82
2024/02/19 07:59:45;;;;;;;;;0.00;0.00;;;;;14.45;100.00;102967.72;5077230;27;74565;-83
2024/02/19 08:02:11;;;;;;;;;0.00;0.00;;;;;14.49;100.00;102965.06;5077946;27;55444;-82
2024/02/19 08:04:37;;;;;;;;;0.00;0.00;;;;;14.50;100.00;102951.09;5111172;27;69481;-86
2024/02/19 08:07:02;;;;;;;;;0.00;0.00;;;;;14.59;100.00;102957.16;5076627;28;45677;-86
2024/02/19 08:09:28;;;;;;;;;0.00;0.00;;;;;14.66;100.00;102946.59;5078693;27;46021;-85
2024/02/19 08:11:53;;;;;;;;;0.00;0.00;;;;;14.71;100.00;102957.03;5110908;27;45384;-85
2024/02/19 08:14:19;;;;;;;;;0.00;0.00;;;;;14.83;100.00;102962.13;5115502;27;45448;-86
2024/02/19 08:16:50;;;;;;;;;0.00;0.00;;;;;14.92;100.00;102955.06;5097385;27;45507;-87
2024/02/19 08:19:23;;;;;;;;;0.00;0.00;;;;;15.03;100.00;102942.69;5097492;27;46375;-86
2024/02/19 08:21:56;;;;;;;;;0.00;0.00;;;;;15.13;100.00;102946.91;5098223;27;45372;-86
2024/02/19 08:24:27;;;;;;;;;0.00;0.00;;;;;15.15;100.00;102939.88;5092585;27;45515;-86
2024/02/19 08:26:52;;;;;;;;;0.00;0.00;;;;;15.09;100.00;102911.13;5077893;27;45353;-86
2024/02/19 08:29:20;;;;;;;;;0.00;0.00;;;;;15.02;100.00;102920.81;5075850;27;64296;-84
2024/02/19 08:31:45;;;;;;;;;0.00;0.00;;;;;14.98;100.00;102939.25;5076677;28;45364;-85
2024/02/19 08:34:11;;;;;;;;;0.00;0.00;;;;;14.93;100.00;102931.41;5077176;27;68270;-86
2024/02/19 08:36:37;;;;;;;;;0.00;0.00;;;;;14.92;100.00;102924.44;5075581;28;66290;-85
2024/02/19 08:39:02;;;;;;;;;0.00;0.00;;;;;15.00;100.00;102921.72;5077023;27;45534;-86
2024/02/19 08:41:29;;;;;;;;;0.00;0.00;;;;;15.06;100.00;102919.00;5077248;27;45358;-86
2024/02/19 08:43:55;;;;;;;;;0.00;0.00;;;;;15.17;100.00;102895.28;5110731;27;45366;-86
2024/02/19 08:46:20;;;;;;;;;0.00;0.00;;;;;15.23;100.00;102892.56;5077100;27;53184;-86
2024/02/19 08:48:46;;;;;;;;;0.00;0.00;;;;;15.33;100.00;102902.03;5086826;28;75745;-82
2024/02/19 08:51:11;;;;;;;;;0.00;0.00;;;;;15.45;100.00;102893.09;5098898;27;45497;-85
2024/02/19 08:53:56;;;;;;;;;0.00;0.00;;;;;15.52;100.00;102896.53;5098154;27;65392;-86
2024/02/19 08:56:22;;;;;;;;;0.00;0.00;;;;;15.65;100.00;102916.44;5096034;27;45511;-85
2024/02/19 08:58:47;;;;;;;;;0.00;0.00;;;;;15.71;100.00;102916.34;5096329;27;74908;-85
2024/02/19 09:01:14;;;;;;;;;0.00;0.00;;;;;15.72;100.00;102925.97;5078404;27;45482;-84
2024/02/19 09:03:40;;;;;;;;;0.00;0.00;;;;;15.64;100.00;102930.47;5077358;27;45327;-85
2024/02/19 09:06:08;;;;;;;;;0.00;0.00;;;;;15.60;100.00;102934.00;5127303;27;45484;-85
2024/02/19 09:08:34;;;;;;;;;0.00;0.00;;;;;15.59;100.00;102932.28;5096101;27;46972;-85
2024/02/19 09:10:59;;;;;;;;;0.00;0.00;;;;;15.57;100.00;102945.44;5096787;27;61384;-85
2024/02/19 09:13:24;;;;;;;;;0.00;0.00;;;;;15.58;100.00;102962.94;5097167;27;45403;-85
2024/02/19 09:15:50;;;;;;;;;0.00;0.00;;;;;15.51;100.00;102981.38;5112161;27;70764;-86
2024/02/19 09:18:15;;;;;;;;;0.00;0.00;;;;;15.37;100.00;102981.59;5097574;27;46266;-87
2024/02/19 09:20:41;;;;;;;;;0.00;0.00;;;;;15.36;100.00;102988.59;5097032;27;60833;-87
2024/02/19 09:23:06;;;;;;;;;0.00;0.00;;;;;15.23;100.00;102990.50;5097582;27;45317;-87
2024/02/19 09:25:32;;;;;;;;;0.00;0.00;;;;;15.10;100.00;102992.41;5092296;27;61131;-85
2024/02/19 09:27:57;;;;;;;;;0.00;0.00;;;;;15.13;100.00;102982.78;5096676;27;46094;-87
2024/02/19 09:30:23;;;;;;;;;0.00;0.00;;;;;15.15;100.00;102983.63;5087138;27;60589;-86
2024/02/19 09:32:49;;;;;;;;;0.00;0.00;;;;;15.15;100.00;102989.72;5059842;28;45384;-87
2024/02/19 09:35:16;;;;;;;;;0.00;0.00;;;;;15.19;100.00;102990.56;5118158;27;45417;-87
2024/02/19 09:37:41;;;;;;;;;0.00;0.00;;;;;15.23;100.00;102984.38;5097754;27;46123;-86
2024/02/19 09:40:08;;;;;;;;;0.00;0.00;;;;;15.25;100.00;102983.50;5096534;27;45331;-87
2024/02/19 09:42:35;;;;;;;;;0.00;0.00;;;;;15.23;100.00;102982.66;5096683;27;45401;-87
2024/02/19 09:45:00;;;;;;;;;0.00;0.00;;;;;15.19;100.00;102988.81;5097275;27;45519;-86
2024/02/19 09:47:26;;;;;;;;;0.00;0.00;;;;;15.24;100.00;102983.50;5096902;27;46908;-87
2024/02/19 09:49:52;;;;;;;;;0.00;0.00;;;;;15.17;100.00;102982.69;5092906;27;45856;-88
2024/02/19 09:52:24;;;;;;;;;0.00;0.00;;;;;15.22;100.00;102996.63;5096930;27;45379;-85
2024/02/19 09:54:50;;;;;;;;;0.00;0.00;;;;;15.28;100.00;103007.06;5096386;27;45328;-84
2024/02/19 09:57:18;;;;;;;;;0.00;0.00;;;;;15.28;100.00;102996.59;5095909;27;47401;-85
2024/02/19 09:59:45;;;;;;;;;0.00;0.00;;;;;15.34;100.00;102993.00;5097075;27;45337;-84
2024/02/19 10:02:11;;;;;;;;;0.00;0.00;;;;;15.41;100.00;102988.53;5096454;27;45334;-85
2024/02/19 10:04:37;;;;;;;;;0.00;0.00;;;;;15.48;100.00;102979.69;5096395;27;45534;-84
2024/02/19 10:07:03;;;;;;;;;0.00;0.00;;;;;15.54;100.00;102983.97;5097163;27;46264;-84
2024/02/19 10:09:29;;;;;;;;;0.00;0.00;;;;;15.75;100.00;102975.84;5097185;27;45614;-84
2024/02/19 10:11:57;;;;;;;;;0.00;0.00;;;;;15.77;100.00;102991.56;5096222;27;45370;-83
2024/02/19 10:14:22;;;;;;;;;0.00;0.00;;;;;15.78;100.00;102991.53;5098169;27;45332;-86
2024/02/19 10:16:51;;;;;;;;;0.00;0.00;;;;;15.79;100.00;102990.66;5078339;27;45588;-90
2024/02/19 10:19:16;;;;;;;;;0.00;0.00;;;;;15.73;100.00;102981.94;5076217;28;45591;-89
2024/02/19 10:21:42;;;;;;;;;0.00;0.00;;;;;15.69;100.00;102994.25;5058535;28;66458;-88
2024/02/19 10:24:08;;;;;;;;;0.00;0.00;;;;;15.66;100.00;102982.06;5110530;27;45402;-88
2024/02/19 10:26:34;;;;;;;;;0.00;0.00;;;;;15.62;100.00;102998.75;5058819;28;49936;-89
2024/02/19 10:29:00;;;;;;;;;0.00;0.00;;;;;15.55;100.00;102998.84;5076058;28;45794;-88
2024/02/19 10:31:26;;;;;;;;;0.00;0.00;;;;;15.51;100.00;102997.13;5077544;27;45468;-88
2024/02/19 10:33:52;;;;;;;;;0.00;0.00;;;;;15.45;100.00;102998.09;5076368;28;45679;-88
2024/02/19 10:36:19;;;;;;;;;1.00;0.00;;;;;15.36;100.00;103003.47;5076008;27;45501;-88
2024/02/19 10:38:45;;;;;;;;;0.00;0.00;;;;;15.30;100.00;102999.16;5076161;28;45418;-89
2024/02/19 10:41:11;;;;;;;;;0.00;0.00;;;;;15.30;100.00;102999.16;5075664;28;45402;-88
2024/02/19 10:43:37;;;;;;;;;0.00;0.00;;;;;15.34;100.00;102992.13;5076357;27;46028;-89
2024/02/19 10:46:04;;;;;;;;;0.00;0.00;;;;;15.39;100.00;102995.56;5075241;28;63675;-87
2024/02/19 10:48:31;;;;;;;;;10.00;10.00;;;;;15.47;100.00;102991.94;5076041;28;45627;-88
2024/02/19 10:50:56;;;;;;;;;0.00;0.00;;;;;15.45;100.00;102987.59;5085085;27;45259;-89
2024/02/19 10:53:27;;;;;;;;;0.00;0.00;;;;;15.45;100.00;102991.09;5096233;27;48882;-89
2024/02/19 10:56:17;;;;;;;;;0.00;0.00;;;;;15.40;100.00;102984.19;5097492;27;47064;-89
2024/02/19 10:58:52;;;;;;;;;0.00;0.00;;;;;15.36;100.00;102996.47;5098191;27;45398;-89
2024/02/19 11:01:18;;;;;;;;;0.00;0.00;;;;;15.37;100.00;102994.72;5096694;27;45815;-89
2024/02/19 11:03:44;;;;;;;;;0.00;0.00;;;;;15.44;100.00;102999.84;5096505;27;45398;-85
2024/02/19 11:06:11;;;;;;;;;0.00;0.00;;;;;15.44;100.00;102988.50;5095468;27;45424;-87
2024/02/19 11:08:36;;;;;;;;;0.00;0.00;;;;;15.42;100.00;102993.75;5078414;27;45995;-87
2024/02/19 11:11:03;;;;;;;;;0.00;0.00;;;;;15.39;100.00;102996.41;5091280;27;45581;-85